Time;durP1;ratioP1;P1;durP2;ratioP2;P2;SDS_P1;SDS_P2;PMS_P1;PMS_P2;Temp;Humidity;BMP_temperature;BMP_pressure;BME280_temperature;BME280_humidity;BME280_pressure;Samples;Min_cycle;Max_cycle;Signal;HPM_P1;HPM_P2
2022/10/01 00:01:18;;;;;;;12.50;11.30;;;;;;;10.64;100.00;96112.84;5009796;28;104298;-63
2022/10/01 00:03:46;;;;;;;12.87;11.57;;;;;;;10.60;100.00;96119.75;5013498;28;101916;-63
2022/10/01 00:06:17;;;;;;;13.27;12.07;;;;;;;10.55;100.00;96125.03;5009654;28;105522;-62
2022/10/01 00:08:47;;;;;;;13.07;11.87;;;;;;;10.51;100.00;96134.56;5010256;28;101864;-63
2022/10/01 00:11:17;;;;;;;13.93;12.63;;;;;;;10.50;100.00;96129.50;5010091;28;104801;-62
2022/10/01 00:13:45;;;;;;;14.57;13.17;;;;;;;10.49;100.00;96146.50;5009496;28;105863;-62
2022/10/01 00:16:14;;;;;;;17.23;15.47;;;;;;;10.46;100.00;96139.84;5010259;28;101963;-63
2022/10/01 00:18:43;;;;;;;16.33;14.63;;;;;;;10.45;100.00;96145.41;5010084;28;104891;-63
2022/10/01 00:21:12;;;;;;;17.03;15.43;;;;;;;10.45;100.00;96150.72;5009431;28;106725;-62
2022/10/01 00:23:41;;;;;;;17.60;16.00;;;;;;;10.44;100.00;96149.94;5009949;28;102109;-63
2022/10/01 00:26:10;;;;;;;18.53;16.60;;;;;;;10.45;100.00;96158.72;5012870;28;104726;-63
2022/10/01 00:28:37;;;;;;;19.70;17.70;;;;;;;10.48;100.00;96163.53;5009614;28;101865;-62
2022/10/01 00:31:06;;;;;;;19.23;17.43;;;;;;;10.50;100.00;96158.75;5010083;28;105160;-63
2022/10/01 00:33:34;;;;;;;18.87;16.97;;;;;;;10.55;100.00;96156.94;5009290;28;105663;-62
2022/10/01 00:36:01;;;;;;;19.97;16.80;;;;;;;10.57;100.00;96159.34;5009718;28;101935;-63
2022/10/01 00:38:28;;;;;;;18.70;16.93;;;;;;;10.61;100.00;96160.41;5009530;28;104889;-63
2022/10/01 00:40:57;;;;;;;18.73;16.90;;;;;;;10.62;100.00;96162.81;5009133;28;105875;-63
2022/10/01 00:43:26;;;;;;;17.90;16.30;;;;;;;10.68;100.00;96161.03;5009727;28;101986;-63
2022/10/01 00:45:56;;;;;;;18.57;16.87;;;;;;;10.69;100.00;96163.41;5012522;28;105543;-63
2022/10/01 00:48:25;;;;;;;17.63;15.90;;;;;;;10.72;100.00;96165.56;5009877;28;101721;-62
2022/10/01 00:50:53;;;;;;;17.10;15.40;;;;;;;10.73;100.00;96161.03;5009060;28;104868;-63
2022/10/01 00:53:21;;;;;;;16.20;14.63;;;;;;;10.73;100.00;96153.84;5010592;28;102953;-62
2022/10/01 00:55:54;;;;;;;16.83;15.33;;;;;;;10.76;100.00;96157.88;5010113;28;102199;-62
2022/10/01 00:58:24;;;;;;;15.90;14.30;;;;;;;10.80;100.00;96164.28;5009243;28;105165;-62
2022/10/01 01:00:55;;;;;;;16.50;15.00;;;;;;;10.88;100.00;96163.78;5008302;28;105157;-62
2022/10/01 01:03:22;;;;;;;15.50;14.00;;;;;;;10.88;100.00;96161.13;5009025;28;101932;-62
2022/10/01 01:05:50;;;;;;;15.57;14.17;;;;;;;10.90;100.00;96165.13;5010766;28;102315;-62
2022/10/01 01:08:18;;;;;;;16.37;14.87;;;;;;;10.88;100.00;96161.13;5012052;28;105688;-62
2022/10/01 01:10:53;;;;;;;16.43;14.83;;;;;;;10.87;100.00;96163.00;5009142;28;103880;-62
2022/10/01 01:13:29;;;;;;;16.23;14.63;;;;;;;10.80;100.00;96169.59;5008674;28;104263;-62
2022/10/01 01:16:02;;;;;;;15.40;13.90;;;;;;;10.82;100.00;96168.28;5009384;28;102189;-63
2022/10/01 01:18:35;;;;;;;14.90;13.47;;;;;;;10.83;100.00;96161.09;5009397;28;105084;-62
2022/10/01 01:21:18;;;;;;;15.27;13.87;;;;;;;10.84;100.00;96162.72;5009378;28;102715;-63
2022/10/01 01:24:25;;;;;;;14.83;13.53;;;;;;;10.82;100.00;96157.66;5009085;28;101818;-63
2022/10/01 01:27:09;;;;;;;14.80;13.33;;;;;;;10.81;100.00;96160.56;5009004;28;104682;-63
2022/10/01 01:29:44;;;;;;;14.80;13.30;;;;;;;10.84;100.00;96150.19;5008227;28;104198;-63
2022/10/01 01:32:14;;;;;;;14.23;12.93;;;;;;;10.88;100.00;96148.63;5012403;28;101895;-63
2022/10/01 01:34:46;;;;;;;14.23;12.93;;;;;;;10.88;100.00;96135.34;5009662;28;102714;-63
2022/10/01 01:37:19;;;;;;;15.00;13.60;;;;;;;10.94;100.00;96146.78;5008826;28;101867;-63
2022/10/01 01:39:52;;;;;;;14.07;12.77;;;;;;;10.93;100.00;96140.69;5010170;28;102850;-63
2022/10/01 01:42:23;;;;;;;13.43;12.23;;;;;;;10.97;100.00;96136.44;5008184;28;105392;-63
2022/10/01 01:44:57;;;;;;;14.03;12.63;;;;;;;10.95;100.00;96140.44;5009849;28;101735;-63
2022/10/01 01:47:31;;;;;;;14.33;13.03;;;;;;;10.96;100.00;96131.38;5010128;28;103006;-63
2022/10/01 01:50:01;;;;;;;13.73;12.53;;;;;;;10.94;100.00;96128.97;5009707;28;102544;-63
2022/10/01 01:52:28;;;;;;;14.13;12.83;;;;;;;10.95;100.00;96129.78;5008080;28;102041;-62
2022/10/01 01:54:55;;;;;;;14.93;13.30;;;;;;;10.86;100.00;96134.00;5012688;28;102679;-63
2022/10/01 01:57:22;;;;;;;14.47;13.00;;;;;;;10.88;100.00;96134.53;5009978;28;101701;-62
2022/10/01 01:59:51;;;;;;;14.70;13.33;;;;;;;10.88;100.00;96131.88;5008632;28;103555;-62
2022/10/01 02:02:23;;;;;;;12.53;11.43;;;;;;;10.88;100.00;96130.00;5008058;28;106356;-63
2022/10/01 02:04:54;;;;;;;12.33;11.23;;;;;;;10.90;100.00;96129.75;5008415;28;101868;-62
2022/10/01 02:07:47;;;;;;;12.37;11.13;;;;;;;10.92;100.00;96130.28;5009676;28;102592;-63
2022/10/01 02:10:27;;;;;;;12.70;11.60;;;;;;;10.92;100.00;96125.78;5009543;28;102713;-63
2022/10/01 02:13:07;;;;;;;11.60;10.60;;;;;;;10.90;100.00;96127.09;5009691;28;101797;-63
2022/10/01 02:15:46;;;;;;;12.40;10.53;;;;;;;10.91;100.00;96128.69;5009651;28;102950;-63
2022/10/01 02:18:22;;;;;;;11.90;10.80;;;;;;;10.89;100.00;96120.16;5012615;28;102669;-63
2022/10/01 02:20:54;;;;;;;11.70;10.53;;;;;;;10.85;100.00;96119.09;5009719;28;102306;-62
2022/10/01 02:23:27;;;;;;;12.67;11.37;;;;;;;10.82;100.00;96124.91;5008934;28;102937;-62
2022/10/01 02:25:59;;;;;;;11.80;10.70;;;;;;;10.75;100.00;96119.03;5009338;28;101820;-62
2022/10/01 02:28:27;;;;;;;11.97;10.87;;;;;;;10.71;100.00;96112.63;5008114;28;105164;-62
2022/10/01 02:30:57;;;;;;;11.10;10.20;;;;;;;10.73;100.00;96116.63;5007209;28;106284;-63
2022/10/01 02:33:29;;;;;;;12.87;11.60;;;;;;;10.71;100.00;96115.28;5009367;28;101721;-62
2022/10/01 02:35:59;;;;;;;13.10;11.80;;;;;;;10.72;100.00;96116.88;5009445;28;102842;-63
2022/10/01 02:38:27;;;;;;;12.60;11.50;;;;;;;10.68;100.00;96110.50;5008677;28;102656;-62
2022/10/01 02:40:59;;;;;;;13.77;12.37;;;;;;;10.73;100.00;96110.50;5012817;28;101766;-63
2022/10/01 02:43:31;;;;;;;13.03;11.87;;;;;;;10.77;100.00;96111.59;5007154;28;105420;-62
2022/10/01 02:46:07;;;;;;;12.37;11.27;;;;;;;10.76;100.00;96113.47;5008012;28;101852;-63
2022/10/01 02:48:34;;;;;;;12.43;11.33;;;;;;;10.77;100.00;96116.91;5009285;28;102338;-63
2022/10/01 02:51:13;;;;;;;12.53;11.43;;;;;;;10.81;100.00;96118.00;5008199;28;102720;-62
2022/10/01 02:53:44;;;;;;;12.50;11.30;;;;;;;10.82;100.00;96107.13;5007644;28;102049;-63
2022/10/01 02:57:21;;;;;;;11.97;10.93;;;;;;;10.85;100.00;96109.25;5008651;28;102408;-63
2022/10/01 02:59:00;;;;;;;12.43;11.30;;;;;;;10.84;100.00;96101.53;5008182;28;102571;-63
2022/10/01 03:01:28;;;;;;;11.37;10.47;;;;;;;10.87;100.00;96107.13;5012544;28;101896;-63
2022/10/01 03:03:55;;;;;;;11.67;10.67;;;;;;;10.90;100.00;96101.28;5007137;28;105689;-62
2022/10/01 03:06:22;;;;;;;11.00;10.10;;;;;;;10.91;100.00;96107.41;5007396;28;101963;-62
2022/10/01 03:08:50;;;;;;;12.77;11.57;;;;;;;10.88;100.00;96105.25;5007649;28;105039;-62
2022/10/01 03:11:16;;;;;;;12.67;11.57;;;;;;;10.83;100.00;96095.41;5006864;28;103835;-63
2022/10/01 03:13:44;;;;;;;13.17;11.87;;;;;;;10.79;100.00;96093.53;5007452;28;101878;-63
2022/10/01 03:16:11;;;;;;;12.20;11.07;;;;;;;10.78;100.00;96099.88;5007713;28;105180;-62
2022/10/01 03:18:39;;;;;;;14.20;12.87;;;;;;;10.78;100.00;96105.22;5006764;28;104213;-62
2022/10/01 03:21:07;;;;;;;13.20;12.10;;;;;;;10.79;100.00;96104.94;5007428;28;102288;-62
2022/10/01 03:23:34;;;;;;;12.17;11.10;;;;;;;10.77;100.00;96100.94;5011749;28;102347;-62
2022/10/01 03:26:01;;;;;;;12.33;11.23;;;;;;;10.80;100.00;96100.44;5011288;28;101802;-63
2022/10/01 03:28:28;;;;;;;12.00;11.00;;;;;;;10.83;100.00;96097.25;5010636;28;105156;-63
2022/10/01 03:31:05;;;;;;;13.00;11.80;;;;;;;10.79;100.00;96096.19;5011670;28;103200;-62
2022/10/01 03:33:32;;;;;;;13.23;11.93;;;;;;;10.78;100.00;96095.38;5012163;28;101716;-63
2022/10/01 03:36:01;;;;;;;12.90;11.60;;;;;;;10.78;100.00;96100.69;5012159;28;101708;-63
2022/10/01 03:38:28;;;;;;;12.70;11.43;;;;;;;10.77;100.00;96101.75;5010148;28;105401;-62
2022/10/01 03:40:55;;;;;;;12.40;11.30;;;;;;;10.73;100.00;96094.53;5010262;28;101957;-63
2022/10/01 03:43:22;;;;;;;12.90;11.80;;;;;;;10.69;100.00;96098.78;5012096;28;102400;-63
2022/10/01 03:45:49;;;;;;;13.63;12.47;;;;;;;10.68;100.00;96097.19;5013566;28;105946;-62
2022/10/01 03:48:17;;;;;;;14.20;12.90;;;;;;;10.69;100.00;96098.78;5011956;28;102892;-63
2022/10/01 03:50:52;;;;;;;13.90;12.50;;;;;;;10.61;100.00;96091.28;5011031;28;103110;-63
2022/10/01 03:53:21;;;;;;;13.40;12.20;;;;;;;10.50;100.00;96090.44;5011972;28;102061;-62
2022/10/01 03:55:48;;;;;;;14.80;13.50;;;;;;;10.37;100.00;96098.84;5011196;28;101691;-63
2022/10/01 03:58:16;;;;;;;14.13;12.73;;;;;;;10.29;100.00;96104.66;5011399;28;102721;-62
2022/10/01 04:00:44;;;;;;;13.87;12.47;;;;;;;10.26;100.00;96101.69;5011476;28;101893;-63
2022/10/01 04:03:11;;;;;;;15.73;14.33;;;;;;;10.22;100.00;96097.94;5011747;28;102548;-63
2022/10/01 04:05:38;;;;;;;14.13;12.83;;;;;;;10.18;100.00;96097.66;5009693;28;103813;-63
2022/10/01 04:08:05;;;;;;;14.30;13.00;;;;;;;10.18;100.00;96086.22;4997148;28;101963;-62
2022/10/01 04:10:35;;;;;;;14.03;12.77;;;;;;;10.14;100.00;96095.78;5009729;28;105316;-63
2022/10/01 04:13:02;;;;;;;14.10;12.70;;;;;;;10.14;100.00;96093.91;5010115;28;101705;-63
2022/10/01 04:15:29;;;;;;;12.37;11.27;;;;;;;10.07;100.00;96095.97;5011295;28;102837;-63
2022/10/01 04:17:56;;;;;;;13.77;12.57;;;;;;;10.09;100.00;96099.16;5010992;28;103188;-63
2022/10/01 04:20:24;;;;;;;13.13;11.63;;;;;;;10.02;100.00;96100.41;5010133;28;101907;-63
2022/10/01 04:22:51;;;;;;;12.17;11.17;;;;;;;9.97;100.00;96092.41;5010188;28;103738;-62
2022/10/01 04:25:18;;;;;;;13.47;12.17;;;;;;;9.96;100.00;96109.38;5009286;28;105135;-63
2022/10/01 04:27:56;;;;;;;13.77;12.43;;;;;;;9.89;100.00;96108.81;5009913;28;101955;-62
2022/10/01 04:30:24;;;;;;;12.10;11.03;;;;;;;9.80;100.00;96103.16;5014338;28;102806;-62
2022/10/01 04:32:51;;;;;;;13.07;11.77;;;;;;;9.71;100.00;96109.19;5010916;28;101962;-62
2022/10/01 04:35:18;;;;;;;11.43;10.33;;;;;;;9.60;100.00;96094.19;5009782;28;104353;-62
2022/10/01 04:37:46;;;;;;;11.53;10.60;;;;;;;9.54;100.00;96092.56;5010643;28;102464;-63
2022/10/01 04:40:13;;;;;;;12.13;11.00;;;;;;;9.57;100.00;96094.69;5011374;28;101928;-62
2022/10/01 04:42:42;;;;;;;15.47;11.70;;;;;;;9.48;100.00;96096.22;5011203;28;102318;-62
2022/10/01 04:45:12;;;;;;;12.23;11.07;;;;;;;9.40;100.00;96094.00;5010512;28;102669;-62
2022/10/01 04:47:47;;;;;;;11.63;10.63;;;;;;;9.19;100.00;96100.94;5010547;28;102028;-63
2022/10/01 04:50:15;;;;;;;12.43;11.23;;;;;;;9.24;100.00;96100.19;5009868;28;105424;-63
2022/10/01 04:52:45;;;;;;;11.10;10.03;;;;;;;9.23;100.00;96099.41;5013410;28;102179;-63
2022/10/01 04:55:14;;;;;;;10.63;9.73;;;;;;;9.20;100.00;96104.38;5010614;28;102240;-63
2022/10/01 04:57:42;;;;;;;11.43;10.43;;;;;;;9.21;100.00;96111.31;5010893;28;103127;-62
2022/10/01 05:00:13;;;;;;;12.37;11.17;;;;;;;9.06;100.00;96122.53;5010995;28;101723;-63
2022/10/01 05:02:44;;;;;;;10.57;9.67;;;;;;;9.05;100.00;96112.19;5009418;28;105128;-63
2022/10/01 05:05:11;;;;;;;11.10;9.93;;;;;;;9.05;100.00;96115.63;5011153;28;103130;-62
2022/10/01 05:07:39;;;;;;;10.07;9.10;;;;;;;9.03;100.00;96127.50;5011469;28;101997;-63
2022/10/01 05:10:08;;;;;;;10.90;9.90;;;;;;;9.03;100.00;96132.81;5011639;28;102775;-63
2022/10/01 05:12:35;;;;;;;11.83;10.73;;;;;;;9.00;100.00;96130.69;5014403;28;103166;-63
2022/10/01 05:15:03;;;;;;;10.77;9.77;;;;;;;8.92;100.00;96139.03;5010400;28;102844;-62
2022/10/01 05:17:33;;;;;;;11.10;10.03;;;;;;;8.98;100.00;96138.06;5009510;28;104335;-63
2022/10/01 05:20:00;;;;;;;10.53;9.63;;;;;;;8.97;100.00;96137.28;5010210;28;101979;-62
2022/10/01 05:22:27;;;;;;;11.57;10.47;;;;;;;9.01;100.00;96134.94;5011433;28;102712;-63
2022/10/01 05:24:54;;;;;;;11.50;10.40;;;;;;;9.00;100.00;96146.59;5009970;28;102947;-62
2022/10/01 05:27:21;;;;;;;10.97;9.97;;;;;;;8.92;100.00;96144.34;5010521;28;101986;-63
2022/10/01 05:29:48;;;;;;;10.77;9.77;;;;;;;8.82;100.00;96142.38;5008844;28;103951;-62
2022/10/01 05:32:16;;;;;;;11.23;10.13;;;;;;;8.78;100.00;96140.47;5010800;28;103110;-63
2022/10/01 05:34:45;;;;;;;13.70;12.50;;;;;;;8.78;100.00;96135.16;5013694;28;101797;-63
2022/10/01 05:37:12;;;;;;;12.53;11.43;;;;;;;8.88;100.00;96130.78;5008439;28;104963;-62
2022/10/01 05:39:39;;;;;;;12.50;11.40;;;;;;;8.96;100.00;96124.25;5008727;28;101776;-62
2022/10/01 05:42:06;;;;;;;11.83;10.63;;;;;;;8.95;100.00;96128.75;5008926;28;105240;-62
2022/10/01 05:44:36;;;;;;;11.30;10.30;;;;;;;8.98;100.00;96122.97;5007930;28;103094;-62
2022/10/01 05:47:05;;;;;;;10.33;9.43;;;;;;;9.07;100.00;96128.63;5008408;28;101840;-62
2022/10/01 05:49:32;;;;;;;10.70;9.80;;;;;;;9.13;100.00;96136.41;5009271;28;105104;-63
2022/10/01 05:52:01;;;;;;;11.33;10.30;;;;;;;9.28;100.00;96125.97;5008528;28;106226;-62
2022/10/01 05:54:28;;;;;;;10.93;9.93;;;;;;;9.44;100.00;96122.44;5008478;28;101835;-63
2022/10/01 05:56:55;;;;;;;10.33;9.43;;;;;;;9.52;100.00;96126.50;5012253;28;105451;-62
2022/10/01 05:59:23;;;;;;;11.47;10.37;;;;;;;9.54;100.00;96127.06;5009477;28;101828;-62
2022/10/01 06:01:50;;;;;;;11.27;10.27;;;;;;;9.59;100.00;96119.94;5008139;28;103662;-62
2022/10/01 06:04:17;;;;;;;10.67;9.77;;;;;;;9.75;100.00;96123.56;5008142;28;105431;-62
2022/10/01 06:06:54;;;;;;;11.43;10.43;;;;;;;9.91;100.00;96122.63;5009445;28;101932;-62
2022/10/01 06:09:25;;;;;;;12.43;11.33;;;;;;;10.09;100.00;96120.41;5011385;28;103888;-62
2022/10/01 06:11:52;;;;;;;12.23;11.13;;;;;;;10.20;100.00;96116.78;5010834;28;104612;-62
2022/10/01 06:14:18;;;;;;;12.47;11.37;;;;;;;10.38;100.00;96126.22;5018887;28;101867;-62
2022/10/01 06:16:48;;;;;;;12.80;11.67;;;;;;;10.51;100.00;96131.09;5018966;28;105136;-62
2022/10/01 06:19:16;;;;;;;13.33;12.23;;;;;;;10.61;100.00;96124.00;5030136;28;105687;-63
2022/10/01 06:25:09;;;;;;;13.57;12.40;;;;;;;10.94;100.00;96128.16;5028127;28;103876;-62
2022/10/01 06:27:52;;;;;;;15.57;14.07;;;;;;;11.08;100.00;96132.78;5011834;28;101852;-62
2022/10/01 06:30:19;;;;;;;13.13;12.03;;;;;;;11.26;100.00;96144.81;5028531;28;103478;-62
2022/10/01 06:32:47;;;;;;;13.27;11.97;;;;;;;11.31;100.00;96136.84;5027909;28;105346;-61
2022/10/01 06:35:14;;;;;;;12.37;11.17;;;;;;;11.39;100.00;96147.03;5029741;27;101854;-62
2022/10/01 06:41:29;;;;;;;13.80;12.23;;;;;;;11.76;100.00;96142.34;5026208;28;102202;-62
2022/10/01 06:43:56;;;;;;;12.00;10.90;;;;;;;11.76;100.00;96142.34;5032586;27;102861;-62
2022/10/01 06:46:23;;;;;;;11.57;10.57;;;;;;;11.91;100.00;96145.84;5027640;28;105565;-60
2022/10/01 06:48:50;;;;;;;13.33;11.97;;;;;;;11.83;100.00;96138.38;5029470;28;101976;-62
2022/10/01 06:52:47;;;;;;;13.37;12.17;;;;;;;11.88;100.00;96132.25;5027848;28;103621;-62
2022/10/01 06:54:05;;;;;;;10.67;9.67;;;;;;;11.90;100.00;96138.13;5028722;28;102597;-62
2022/10/01 06:56:35;;;;;;;8.77;8.03;;;;;;;11.82;100.00;96130.66;5029942;28;101662;-62
2022/10/01 06:59:02;;;;;;;8.90;8.20;;;;;;;11.82;100.00;96125.34;5028865;27;105275;-62
2022/10/01 07:01:31;;;;;;;8.30;7.60;;;;;;;11.96;100.00;96129.06;5031621;28;105013;-62
2022/10/01 07:03:58;;;;;;;7.90;7.30;;;;;;;12.13;100.00;96133.09;5036177;28;102026;-62
2022/10/01 07:06:26;;;;;;;9.07;8.27;;;;;;;12.25;100.00;96140.81;5032902;28;102914;-62
2022/10/01 07:08:53;;;;;;;9.67;8.67;;;;;;;12.30;100.00;96133.63;5032649;28;101810;-62
2022/10/01 07:11:20;;;;;;;9.00;8.23;;;;;;;12.55;100.00;96122.94;5032264;28;105248;-62
2022/10/01 07:13:50;;;;;;;8.47;7.67;;;;;;;12.71;100.00;96126.38;5031842;28;105131;-62
2022/10/01 07:16:58;;;;;;;8.20;7.40;;;;;;;12.86;100.00;96127.13;5032459;28;101797;-62
2022/10/01 07:19:26;;;;;;;6.77;6.17;;;;;;;12.98;100.00;96125.00;5033969;28;102914;-62
2022/10/01 07:21:55;;;;;;;4.77;4.37;;;;;;;12.85;100.00;96120.22;5033081;28;102627;-62
2022/10/01 07:24:22;;;;;;;5.07;4.53;;;;;;;12.84;100.00;96123.16;5032279;28;101956;-62
2022/10/01 07:26:58;;;;;;;4.03;3.40;;;;;;;12.96;100.00;96121.81;5029755;28;102270;-62
2022/10/01 07:29:27;;;;;;;2.90;2.70;;;;;;;12.67;100.00;96117.31;5016335;28;101929;-62
2022/10/01 07:31:58;;;;;;;3.10;2.90;;;;;;;12.76;100.00;96110.38;5022017;28;105278;-62
2022/10/01 07:34:25;;;;;;;5.07;3.90;;;;;;;12.58;100.00;96116.25;5023675;28;102872;-62
2022/10/01 07:37:02;;;;;;;4.10;3.80;;;;;;;12.56;100.00;96107.72;5020515;28;102081;-62
2022/10/01 07:39:29;;;;;;;5.63;4.20;;;;;;;12.46;100.00;96105.06;5030807;28;103003;-62
2022/10/01 07:41:57;;;;;;;4.60;4.20;;;;;;;12.48;100.00;96108.28;5032699;27;102603;-62
2022/10/01 07:44:28;;;;;;;5.27;4.00;;;;;;;12.45;100.00;96104.28;5033347;27;101829;-62
2022/10/01 07:47:36;;;;;;;6.07;3.90;;;;;;;12.55;100.00;96111.47;5031890;28;104974;-62
2022/10/01 07:50:05;;;;;;;3.97;3.70;;;;;;;12.57;100.00;96115.47;5034889;28;105113;-62
2022/10/01 07:52:32;;;;;;;3.60;3.30;;;;;;;12.67;100.00;96103.97;5025716;28;105648;-62
2022/10/01 07:54:59;;;;;;;3.53;3.03;;;;;;;12.89;100.00;96099.13;5010269;28;105469;-62
2022/10/01 07:57:27;;;;;;;3.13;2.93;;;;;;;12.85;100.00;96101.53;5011686;28;101759;-62
2022/10/01 07:59:55;;;;;;;3.73;3.43;;;;;;;12.99;100.00;96091.94;5011615;28;104781;-62
2022/10/01 08:02:22;;;;;;;3.27;2.93;;;;;;;13.27;100.00;96090.47;5011020;28;104989;-62
2022/10/01 08:08:07;;;;;;;3.60;3.27;;;;;;;13.81;100.00;96085.88;4970970;28;102801;-62
2022/10/01 08:10:35;;;;;;;3.70;3.40;;;;;;;14.09;100.00;96077.13;4969968;28;102024;-62
2022/10/01 08:13:05;;;;;;;3.97;3.57;;;;;;;14.13;100.00;96078.16;4974090;28;102022;-62
2022/10/01 08:15:34;;;;;;;4.40;3.20;;;;;;;14.01;100.00;96081.19;4970111;28;102707;-62
2022/10/01 08:18:02;;;;;;;3.20;3.00;;;;;;;14.30;100.00;96075.91;4953858;28;101935;-62
2022/10/01 08:20:29;;;;;;;3.37;3.17;;;;;;;14.35;100.00;96073.19;4953469;28;105385;-62
2022/10/01 08:23:01;;;;;;;2.83;2.63;;;;;;;14.47;100.00;96074.44;4952996;28;103958;-62
2022/10/01 08:29:14;;;;;;;3.10;2.90;;;;;;;14.65;100.00;96059.50;4967116;28;101886;-62
2022/10/01 08:31:43;;;;;;;3.53;3.27;;;;;;;14.64;100.00;96057.91;4969705;28;102543;-62
2022/10/01 08:34:10;;;;;;;2.80;2.60;;;;;;;14.64;100.00;96065.94;4953456;28;101910;-60
2022/10/01 08:36:52;;;;;;;2.53;2.30;;;;;;;14.64;100.00;96056.06;4948874;28;105708;-59
2022/10/01 08:39:19;;;;;;;2.30;2.10;;;;;;;14.53;100.00;96051.09;4996534;28;102042;-59
2022/10/01 08:41:55;;;;;;;2.00;1.90;;;;;;;14.64;100.00;96050.72;5031046;28;104080;-59
2022/10/01 08:44:27;;;;;;;1.90;1.80;;;;;;;14.81;100.00;96051.06;5027410;27;103147;-59
2022/10/01 08:47:01;;;;;;;1.87;1.73;;;;;;;14.62;100.00;96049.41;5022232;28;101907;-59
2022/10/01 08:49:36;;;;;;;1.80;1.70;;;;;;;14.59;100.00;96044.59;5012415;28;102290;-61
2022/10/01 08:52:13;;;;;;;4.13;3.50;;;;;;;14.58;100.00;96041.13;5011504;28;102520;-65
2022/10/01 08:54:46;;;;;;;5.87;4.73;;;;;;;14.78;100.00;96048.94;5011506;28;102009;-60
2022/10/01 08:57:20;;;;;;;3.53;2.90;;;;;;;14.80;100.00;96043.31;5010536;28;105121;-64
2022/10/01 08:59:51;;;;;;;3.47;3.20;;;;;;;14.55;100.00;96044.38;5014783;28;103221;-62
2022/10/01 09:02:23;;;;;;;3.50;3.20;;;;;;;14.35;100.00;96055.28;5010820;28;104753;-62
2022/10/01 09:04:54;;;;;;;2.60;2.40;;;;;;;14.92;100.00;96052.53;5011660;28;102038;-62
2022/10/01 09:07:56;;;;;;;3.33;1.97;;;;;;;15.23;100.00;96047.59;5010482;28;102022;-61
2022/10/01 09:10:35;;;;;;;2.33;2.13;;;;;;;15.24;100.00;96041.16;5008282;28;105130;-61
2022/10/01 09:13:33;;;;;;;2.17;2.00;;;;;;;15.28;100.00;96031.47;5014423;28;102873;-60
2022/10/01 09:16:13;;;;;;;1.80;1.70;;;;;;;15.07;100.00;96036.28;5012074;28;102250;-60
2022/10/01 09:18:53;;;;;;;1.90;1.80;;;;;;;15.04;100.00;96042.22;5016386;28;102329;-59
2022/10/01 09:21:26;;;;;;;3.27;1.67;;;;;;;15.31;100.00;96036.25;5034966;27;102519;-60
2022/10/01 09:24:03;;;;;;;1.60;1.50;;;;;;;15.35;100.00;96039.97;5029402;27;103653;-60
2022/10/01 09:26:36;;;;;;;1.67;1.57;;;;;;;15.59;100.00;96028.09;5031175;28;104263;-60
2022/10/01 09:29:06;;;;;;;1.80;1.70;;;;;;;15.27;100.00;96029.88;5029979;28;102159;-60
2022/10/01 09:31:38;;;;;;;3.13;1.80;;;;;;;15.50;100.00;96023.69;5029988;28;104032;-60
2022/10/01 09:34:12;;;;;;;1.70;1.60;;;;;;;15.54;100.00;96004.06;5029405;28;105542;-60
2022/10/01 09:36:47;;;;;;;1.60;1.50;;;;;;;15.61;100.00;96017.09;5029704;28;101975;-60
2022/10/01 09:39:20;;;;;;;1.80;1.57;;;;;;;15.78;100.00;96010.13;5030026;28;103785;-60
2022/10/01 09:41:47;;;;;;;1.83;1.50;;;;;;;15.88;100.00;96010.00;5029151;28;105612;-60
2022/10/01 09:44:17;;;;;;;2.00;1.47;;;;;;;15.98;100.00;96007.13;5017209;28;101931;-60
2022/10/01 09:46:46;;;;;;;1.53;1.50;;;;;;;16.03;100.00;96006.25;5008990;28;105783;-60
2022/10/01 09:49:29;;;;;;;1.33;1.23;;;;;;;15.97;100.00;95994.81;5009648;28;101944;-60
2022/10/01 09:52:02;;;;;;;1.77;1.50;;;;;;;16.06;100.00;96002.97;5010453;28;102317;-60
2022/10/01 09:54:35;;;;;;;2.00;1.80;;;;;;;15.98;100.00;95998.28;5008810;28;105045;-60
2022/10/01 09:57:08;;;;;;;2.30;1.63;;;;;;;16.07;100.00;95996.53;5011172;28;101782;-60
2022/10/01 09:59:38;;;;;;;1.57;1.47;;;;;;;15.99;100.00;95998.00;5011156;28;102687;-60
2022/10/01 10:02:16;;;;;;;1.20;1.20;;;;;;;16.09;100.00;96005.09;5021205;28;102594;-60
2022/10/01 10:04:44;;;;;;;1.50;1.40;;;;;;;16.05;100.00;95999.50;5030940;28;101708;-60
2022/10/01 10:07:19;;;;;;;1.77;1.67;;;;;;;16.15;100.00;95995.84;5033615;27;102656;-60
2022/10/01 10:09:46;;;;;;;2.53;1.70;;;;;;;16.24;100.00;96008.28;5030957;28;101694;-60
2022/10/01 10:12:29;;;;;;;1.87;1.77;;;;;;;16.15;100.00;96020.00;5029449;28;105260;-60
2022/10/01 10:14:57;;;;;;;2.23;2.13;;;;;;;15.84;100.00;96033.09;5028723;28;104176;-60
2022/10/01 10:17:25;;;;;;;2.07;1.97;;;;;;;15.47;100.00;96030.44;5030445;27;102207;-60
2022/10/01 10:19:54;;;;;;;2.07;1.97;;;;;;;15.48;100.00;96037.38;5030743;27;102324;-60
2022/10/01 10:22:23;;;;;;;1.70;1.60;;;;;;;15.72;100.00;96040.00;5030068;28;102794;-60
2022/10/01 10:24:52;;;;;;;1.50;1.40;;;;;;;15.49;100.00;96046.22;5029211;28;102054;-60
2022/10/01 10:27:25;;;;;;;1.90;1.60;;;;;;;15.52;100.00;96037.59;5029092;28;104986;-60
2022/10/01 10:30:02;;;;;;;1.73;1.57;;;;;;;15.34;100.00;96023.13;5033438;28;102799;-60
2022/10/01 10:32:30;;;;;;;1.83;1.60;;;;;;;15.26;100.00;96025.63;5029479;28;105817;-60
2022/10/01 10:35:04;;;;;;;1.93;1.70;;;;;;;15.57;100.00;96016.88;5027979;28;103801;-60
2022/10/01 10:37:36;;;;;;;1.50;1.40;;;;;;;15.78;100.00;95987.88;5029151;28;101855;-60
2022/10/01 10:40:07;;;;;;;1.90;1.80;;;;;;;15.87;100.00;95970.06;5029171;28;105516;-60
2022/10/01 10:42:37;;;;;;;1.73;1.63;;;;;;;15.74;100.00;95965.41;5028114;28;104979;-60
2022/10/01 10:45:16;;;;;;;1.70;1.60;;;;;;;15.75;100.00;95953.63;5029027;28;102011;-60
2022/10/01 10:47:49;;;;;;;2.97;1.77;;;;;;;15.85;100.00;95967.66;5028852;28;104641;-60
2022/10/01 10:50:29;;;;;;;2.13;1.97;;;;;;;15.79;100.00;95971.50;5027831;28;105521;-60
2022/10/01 10:52:57;;;;;;;2.30;2.10;;;;;;;15.89;100.00;95970.53;5032141;28;101911;-60
2022/10/01 10:55:25;;;;;;;2.10;2.00;;;;;;;15.85;100.00;95980.25;5027606;28;104238;-60
2022/10/01 10:57:53;;;;;;;1.90;1.60;;;;;;;15.62;100.00;95983.84;5028676;28;101850;-60
2022/10/01 11:00:22;;;;;;;1.90;1.80;;;;;;;15.65;100.00;95999.34;5030530;28;102863;-60
2022/10/01 11:02:54;;;;;;;2.20;1.80;;;;;;;15.59;100.00;95989.81;5029494;27;102942;-60
2022/10/01 11:05:25;;;;;;;1.90;1.70;;;;;;;15.68;100.00;95993.41;5028515;28;101925;-60
2022/10/01 11:07:55;;;;;;;2.93;1.70;;;;;;;15.68;100.00;96004.94;5030127;28;101667;-60
2022/10/01 11:10:35;;;;;;;1.60;1.50;;;;;;;15.46;100.00;96002.03;5029584;27;101882;-60
2022/10/01 11:13:38;;;;;;;1.90;1.70;;;;;;;15.58;100.00;95993.56;5028565;28;101927;-60
2022/10/01 11:16:23;;;;;;;1.73;1.63;;;;;;;15.57;100.00;95986.59;5011439;28;103494;-60
2022/10/01 11:19:07;;;;;;;2.10;2.00;;;;;;;15.46;100.00;95990.50;5008379;28;101870;-62
2022/10/01 11:21:56;;;;;;;2.40;2.20;;;;;;;15.04;100.00;95996.69;5008415;28;105313;-62
2022/10/01 11:24:44;;;;;;;2.73;2.57;;;;;;;14.48;100.00;95998.44;5008403;28;102520;-62
2022/10/01 11:27:23;;;;;;;2.80;2.60;;;;;;;14.59;100.00;95996.44;5009396;28;101931;-62
2022/10/01 11:30:01;;;;;;;3.27;2.50;;;;;;;14.77;100.00;95991.13;5009741;28;101729;-62
2022/10/01 11:32:37;;;;;;;3.17;2.97;;;;;;;14.84;100.00;95991.59;5007497;28;105959;-62
2022/10/01 11:35:38;;;;;;;2.87;2.67;;;;;;;14.93;100.00;95981.84;5009653;28;101815;-62
2022/10/01 11:38:38;;;;;;;2.70;2.50;;;;;;;14.90;100.00;95978.94;5004387;28;104595;-62
2022/10/01 11:41:26;;;;;;;2.70;2.50;;;;;;;14.85;100.00;95973.66;5009013;28;101837;-62
2022/10/01 11:43:56;;;;;;;2.90;2.70;;;;;;;14.80;100.00;95976.38;5009515;28;102439;-62